sensor_id;sensor_type;location;lat;lon;timestamp;P1;durP1;ratioP1;P2;durP2;ratioP2
72422;SDS011;60413;55.658;37.498;2022-12-24T00:00:38;31.85;;;13.35;;
72422;SDS011;60413;55.658;37.498;2022-12-24T00:03:04;30.20;;;13.50;;
72422;SDS011;60413;55.658;37.498;2022-12-24T00:05:33;33.63;;;13.90;;
72422;SDS011;60413;55.658;37.498;2022-12-24T00:08:02;36.38;;;14.45;;
72422;SDS011;60413;55.658;37.498;2022-12-24T00:10:30;30.50;;;12.85;;
72422;SDS011;60413;55.658;37.498;2022-12-24T00:12:56;33.63;;;13.23;;
72422;SDS011;60413;55.658;37.498;2022-12-24T00:15:22;35.63;;;14.50;;
72422;SDS011;60413;55.658;37.498;2022-12-24T00:17:48;31.75;;;12.75;;
72422;SDS011;60413;55.658;37.498;2022-12-24T00:20:20;34.17;;;13.75;;
72422;SDS011;60413;55.658;37.498;2022-12-24T00:22:46;34.88;;;13.02;;
72422;SDS011;60413;55.658;37.498;2022-12-24T00:25:17;33.72;;;13.50;;
72422;SDS011;60413;55.658;37.498;2022-12-24T00:27:43;32.85;;;12.98;;
72422;SDS011;60413;55.658;37.498;2022-12-24T00:30:12;36.55;;;14.40;;
72422;SDS011;60413;55.658;37.498;2022-12-24T00:32:38;30.75;;;13.60;;
72422;SDS011;60413;55.658;37.498;2022-12-24T00:35:05;36.28;;;13.63;;
72422;SDS011;60413;55.658;37.498;2022-12-24T00:37:34;41.25;;;14.82;;
72422;SDS011;60413;55.658;37.498;2022-12-24T00:40:00;34.33;;;12.68;;
72422;SDS011;60413;55.658;37.498;2022-12-24T00:42:26;35.75;;;14.02;;
72422;SDS011;60413;55.658;37.498;2022-12-24T00:44:52;43.60;;;16.33;;
72422;SDS011;60413;55.658;37.498;2022-12-24T00:47:19;34.38;;;14.07;;
72422;SDS011;60413;55.658;37.498;2022-12-24T00:49:45;45.25;;;15.82;;
72422;SDS011;60413;55.658;37.498;2022-12-24T00:52:11;40.38;;;14.65;;
72422;SDS011;60413;55.658;37.498;2022-12-24T00:54:37;42.70;;;15.50;;
72422;SDS011;60413;55.658;37.498;2022-12-24T00:57:03;52.63;;;16.60;;
72422;SDS011;60413;55.658;37.498;2022-12-24T00:59:29;42.65;;;16.08;;
72422;SDS011;60413;55.658;37.498;2022-12-24T01:01:55;33.00;;;14.48;;
72422;SDS011;60413;55.658;37.498;2022-12-24T01:04:21;40.72;;;16.35;;
72422;SDS011;60413;55.658;37.498;2022-12-24T01:07:06;36.38;;;14.07;;
72422;SDS011;60413;55.658;37.498;2022-12-24T01:09:32;43.90;;;18.90;;
72422;SDS011;60413;55.658;37.498;2022-12-24T01:11:58;41.85;;;16.27;;
72422;SDS011;60413;55.658;37.498;2022-12-24T01:14:24;37.13;;;14.70;;
72422;SDS011;60413;55.658;37.498;2022-12-24T01:16:49;39.70;;;15.45;;
72422;SDS011;60413;55.658;37.498;2022-12-24T01:19:16;32.45;;;11.23;;
72422;SDS011;60413;55.658;37.498;2022-12-24T01:21:41;34.10;;;15.82;;
72422;SDS011;60413;55.658;37.498;2022-12-24T01:24:13;42.13;;;14.30;;
72422;SDS011;60413;55.658;37.498;2022-12-24T01:26:40;29.08;;;12.77;;
72422;SDS011;60413;55.658;37.498;2022-12-24T01:29:06;41.33;;;14.48;;
72422;SDS011;60413;55.658;37.498;2022-12-24T01:31:33;35.80;;;14.55;;
72422;SDS011;60413;55.658;37.498;2022-12-24T01:33:59;36.72;;;14.23;;
72422;SDS011;60413;55.658;37.498;2022-12-24T01:36:25;34.33;;;13.90;;
72422;SDS011;60413;55.658;37.498;2022-12-24T01:38:50;35.65;;;14.52;;
72422;SDS011;60413;55.658;37.498;2022-12-24T01:41:18;40.33;;;13.23;;
72422;SDS011;60413;55.658;37.498;2022-12-24T01:44:17;27.90;;;11.40;;
72422;SDS011;60413;55.658;37.498;2022-12-24T01:46:51;34.22;;;13.93;;
72422;SDS011;60413;55.658;37.498;2022-12-24T01:49:21;34.70;;;12.82;;
72422;SDS011;60413;55.658;37.498;2022-12-24T01:51:50;34.45;;;14.75;;
72422;SDS011;60413;55.658;37.498;2022-12-24T01:54:27;33.80;;;12.82;;
72422;SDS011;60413;55.658;37.498;2022-12-24T01:56:59;43.00;;;14.77;;
72422;SDS011;60413;55.658;37.498;2022-12-24T01:59:29;40.28;;;14.07;;
72422;SDS011;60413;55.658;37.498;2022-12-24T02:01:55;38.78;;;15.18;;
72422;SDS011;60413;55.658;37.498;2022-12-24T02:04:27;42.53;;;14.80;;
72422;SDS011;60413;55.658;37.498;2022-12-24T02:07:01;36.95;;;14.40;;
72422;SDS011;60413;55.658;37.498;2022-12-24T02:09:27;41.55;;;15.30;;
72422;SDS011;60413;55.658;37.498;2022-12-24T02:11:53;40.42;;;14.20;;
72422;SDS011;60413;55.658;37.498;2022-12-24T02:14:19;35.63;;;13.70;;
72422;SDS011;60413;55.658;37.498;2022-12-24T02:20:05;38.05;;;14.15;;
72422;SDS011;60413;55.658;37.498;2022-12-24T02:25:40;39.00;;;14.77;;
72422;SDS011;60413;55.658;37.498;2022-12-24T02:31:05;47.13;;;16.60;;
72422;SDS011;60413;55.658;37.498;2022-12-24T02:33:44;43.63;;;16.63;;
72422;SDS011;60413;55.658;37.498;2022-12-24T02:36:19;32.20;;;12.35;;
72422;SDS011;60413;55.658;37.498;2022-12-24T02:38:57;43.30;;;15.60;;
72422;SDS011;60413;55.658;37.498;2022-12-24T02:41:29;38.05;;;13.20;;
72422;SDS011;60413;55.658;37.498;2022-12-24T02:44:26;41.20;;;14.55;;
72422;SDS011;60413;55.658;37.498;2022-12-24T02:46:55;39.97;;;13.68;;
72422;SDS011;60413;55.658;37.498;2022-12-24T02:49:23;38.13;;;14.05;;
72422;SDS011;60413;55.658;37.498;2022-12-24T02:51:49;41.05;;;14.85;;
72422;SDS011;60413;55.658;37.498;2022-12-24T02:54:16;42.10;;;15.48;;
72422;SDS011;60413;55.658;37.498;2022-12-24T02:59:51;43.05;;;15.40;;
72422;SDS011;60413;55.658;37.498;2022-12-24T03:08:02;51.30;;;17.55;;
72422;SDS011;60413;55.658;37.498;2022-12-24T03:13:33;48.47;;;18.27;;
72422;SDS011;60413;55.658;37.498;2022-12-24T03:16:02;44.17;;;15.10;;
72422;SDS011;60413;55.658;37.498;2022-12-24T03:18:31;36.53;;;14.07;;
72422;SDS011;60413;55.658;37.498;2022-12-24T03:21:00;44.75;;;15.35;;
72422;SDS011;60413;55.658;37.498;2022-12-24T03:23:31;48.58;;;16.58;;
72422;SDS011;60413;55.658;37.498;2022-12-24T03:25:58;39.92;;;15.27;;
72422;SDS011;60413;55.658;37.498;2022-12-24T03:28:29;26.27;;;11.50;;
72422;SDS011;60413;55.658;37.498;2022-12-24T03:30:59;51.75;;;16.58;;
72422;SDS011;60413;55.658;37.498;2022-12-24T03:33:26;39.17;;;14.95;;
72422;SDS011;60413;55.658;37.498;2022-12-24T03:35:52;40.63;;;14.85;;
72422;SDS011;60413;55.658;37.498;2022-12-24T03:38:18;39.38;;;14.52;;
72422;SDS011;60413;55.658;37.498;2022-12-24T03:40:44;39.22;;;14.52;;
72422;SDS011;60413;55.658;37.498;2022-12-24T03:43:10;45.83;;;16.40;;
72422;SDS011;60413;55.658;37.498;2022-12-24T03:45:36;46.22;;;15.70;;
72422;SDS011;60413;55.658;37.498;2022-12-24T03:48:03;51.70;;;16.35;;
72422;SDS011;60413;55.658;37.498;2022-12-24T03:50:29;46.05;;;15.75;;
72422;SDS011;60413;55.658;37.498;2022-12-24T03:52:55;48.20;;;15.57;;
72422;SDS011;60413;55.658;37.498;2022-12-24T03:55:21;55.10;;;15.98;;
72422;SDS011;60413;55.658;37.498;2022-12-24T03:57:48;46.45;;;15.60;;
72422;SDS011;60413;55.658;37.498;2022-12-24T04:00:14;51.63;;;17.77;;
72422;SDS011;60413;55.658;37.498;2022-12-24T04:02:41;48.03;;;16.33;;
72422;SDS011;60413;55.658;37.498;2022-12-24T04:05:15;48.92;;;17.27;;
72422;SDS011;60413;55.658;37.498;2022-12-24T04:07:43;57.15;;;16.75;;
72422;SDS011;60413;55.658;37.498;2022-12-24T04:10:11;44.53;;;15.10;;
72422;SDS011;60413;55.658;37.498;2022-12-24T04:12:38;52.22;;;17.30;;
72422;SDS011;60413;55.658;37.498;2022-12-24T04:15:04;54.85;;;17.10;;
72422;SDS011;60413;55.658;37.498;2022-12-24T04:17:31;50.00;;;15.82;;
72422;SDS011;60413;55.658;37.498;2022-12-24T04:20:01;52.88;;;17.27;;
72422;SDS011;60413;55.658;37.498;2022-12-24T04:22:28;55.50;;;15.30;;
72422;SDS011;60413;55.658;37.498;2022-12-24T04:24:54;46.03;;;16.60;;
72422;SDS011;60413;55.658;37.498;2022-12-24T04:27:20;49.00;;;16.52;;
72422;SDS011;60413;55.658;37.498;2022-12-24T04:29:46;45.78;;;15.63;;
72422;SDS011;60413;55.658;37.498;2022-12-24T04:32:17;52.28;;;17.85;;
72422;SDS011;60413;55.658;37.498;2022-12-24T04:34:43;52.40;;;17.42;;
72422;SDS011;60413;55.658;37.498;2022-12-24T04:37:09;54.22;;;17.80;;
72422;SDS011;60413;55.658;37.498;2022-12-24T04:39:36;53.80;;;17.75;;
72422;SDS011;60413;55.658;37.498;2022-12-24T04:42:02;52.80;;;16.48;;
72422;SDS011;60413;55.658;37.498;2022-12-24T04:44:28;49.20;;;18.00;;
72422;SDS011;60413;55.658;37.498;2022-12-24T04:46:57;51.85;;;17.23;;
72422;SDS011;60413;55.658;37.498;2022-12-24T04:49:31;49.55;;;16.15;;
72422;SDS011;60413;55.658;37.498;2022-12-24T04:52:00;53.80;;;17.08;;
72422;SDS011;60413;55.658;37.498;2022-12-24T04:54:26;44.15;;;15.57;;
72422;SDS011;60413;55.658;37.498;2022-12-24T04:56:52;48.25;;;15.50;;
72422;SDS011;60413;55.658;37.498;2022-12-24T04:59:18;69.68;;;21.98;;
72422;SDS011;60413;55.658;37.498;2022-12-24T05:01:44;40.67;;;12.73;;
72422;SDS011;60413;55.658;37.498;2022-12-24T05:04:11;44.45;;;14.90;;
72422;SDS011;60413;55.658;37.498;2022-12-24T05:06:37;54.40;;;19.17;;
72422;SDS011;60413;55.658;37.498;2022-12-24T05:09:05;56.30;;;17.15;;
72422;SDS011;60413;55.658;37.498;2022-12-24T05:11:31;62.85;;;19.65;;
72422;SDS011;60413;55.658;37.498;2022-12-24T05:13:58;48.22;;;16.60;;
72422;SDS011;60413;55.658;37.498;2022-12-24T05:16:24;54.47;;;16.80;;
72422;SDS011;60413;55.658;37.498;2022-12-24T05:18:50;65.75;;;20.83;;
72422;SDS011;60413;55.658;37.498;2022-12-24T05:21:18;46.38;;;13.25;;
72422;SDS011;60413;55.658;37.498;2022-12-24T05:23:46;57.05;;;19.60;;
72422;SDS011;60413;55.658;37.498;2022-12-24T05:27:03;60.15;;;18.95;;
72422;SDS011;60413;55.658;37.498;2022-12-24T05:32:48;61.83;;;16.77;;
72422;SDS011;60413;55.658;37.498;2022-12-24T05:35:29;57.88;;;17.08;;
72422;SDS011;60413;55.658;37.498;2022-12-24T05:38:24;50.77;;;16.23;;
72422;SDS011;60413;55.658;37.498;2022-12-24T05:41:30;48.50;;;15.18;;
72422;SDS011;60413;55.658;37.498;2022-12-24T05:44:10;55.20;;;16.77;;
72422;SDS011;60413;55.658;37.498;2022-12-24T05:49:53;58.42;;;16.52;;
72422;SDS011;60413;55.658;37.498;2022-12-24T05:53:12;46.33;;;13.95;;
72422;SDS011;60413;55.658;37.498;2022-12-24T05:56:20;45.72;;;15.23;;
72422;SDS011;60413;55.658;37.498;2022-12-24T05:59:20;46.10;;;14.57;;
72422;SDS011;60413;55.658;37.498;2022-12-24T06:02:31;47.40;;;14.93;;
72422;SDS011;60413;55.658;37.498;2022-12-24T06:05:32;31.90;;;11.15;;
72422;SDS011;60413;55.658;37.498;2022-12-24T06:08:30;47.53;;;13.50;;
72422;SDS011;60413;55.658;37.498;2022-12-24T06:11:36;49.33;;;15.60;;
72422;SDS011;60413;55.658;37.498;2022-12-24T06:14:05;50.28;;;14.40;;
72422;SDS011;60413;55.658;37.498;2022-12-24T06:16:46;49.33;;;14.90;;
72422;SDS011;60413;55.658;37.498;2022-12-24T06:19:13;41.25;;;13.75;;
72422;SDS011;60413;55.658;37.498;2022-12-24T06:21:53;67.90;;;17.77;;
72422;SDS011;60413;55.658;37.498;2022-12-24T06:24:41;60.88;;;16.30;;
72422;SDS011;60413;55.658;37.498;2022-12-24T06:27:10;57.65;;;19.65;;
72422;SDS011;60413;55.658;37.498;2022-12-24T06:29:36;60.58;;;15.95;;
72422;SDS011;60413;55.658;37.498;2022-12-24T06:32:12;58.42;;;15.55;;
72422;SDS011;60413;55.658;37.498;2022-12-24T06:34:38;67.55;;;17.70;;
72422;SDS011;60413;55.658;37.498;2022-12-24T06:37:04;50.72;;;13.38;;
72422;SDS011;60413;55.658;37.498;2022-12-24T06:39:30;66.60;;;16.33;;
72422;SDS011;60413;55.658;37.498;2022-12-24T06:41:56;77.78;;;17.50;;
72422;SDS011;60413;55.658;37.498;2022-12-24T06:44:23;63.33;;;15.38;;
72422;SDS011;60413;55.658;37.498;2022-12-24T06:46:49;53.13;;;13.43;;
72422;SDS011;60413;55.658;37.498;2022-12-24T06:49:15;72.78;;;18.80;;
72422;SDS011;60413;55.658;37.498;2022-12-24T06:51:41;84.80;;;17.67;;
72422;SDS011;60413;55.658;37.498;2022-12-24T06:54:08;64.45;;;16.42;;
72422;SDS011;60413;55.658;37.498;2022-12-24T06:56:34;68.82;;;16.70;;
72422;SDS011;60413;55.658;37.498;2022-12-24T06:59:00;64.78;;;16.38;;
72422;SDS011;60413;55.658;37.498;2022-12-24T07:01:26;52.50;;;14.30;;
72422;SDS011;60413;55.658;37.498;2022-12-24T07:03:52;67.18;;;16.98;;
72422;SDS011;60413;55.658;37.498;2022-12-24T07:06:24;62.22;;;17.23;;
72422;SDS011;60413;55.658;37.498;2022-12-24T07:08:52;79.38;;;18.50;;
72422;SDS011;60413;55.658;37.498;2022-12-24T07:11:19;58.05;;;13.77;;
72422;SDS011;60413;55.658;37.498;2022-12-24T07:13:45;80.70;;;17.73;;
72422;SDS011;60413;55.658;37.498;2022-12-24T07:16:12;84.72;;;19.17;;
72422;SDS011;60413;55.658;37.498;2022-12-24T07:18:38;60.58;;;17.25;;
72422;SDS011;60413;55.658;37.498;2022-12-24T07:21:04;73.55;;;18.13;;
72422;SDS011;60413;55.658;37.498;2022-12-24T07:23:31;56.97;;;16.42;;
72422;SDS011;60413;55.658;37.498;2022-12-24T07:25:59;63.30;;;19.75;;
72422;SDS011;60413;55.658;37.498;2022-12-24T07:28:27;65.30;;;17.15;;
72422;SDS011;60413;55.658;37.498;2022-12-24T07:30:57;72.05;;;19.95;;
72422;SDS011;60413;55.658;37.498;2022-12-24T07:33:24;70.78;;;18.27;;
72422;SDS011;60413;55.658;37.498;2022-12-24T07:36:01;49.88;;;14.13;;
72422;SDS011;60413;55.658;37.498;2022-12-24T07:38:29;54.17;;;16.33;;
72422;SDS011;60413;55.658;37.498;2022-12-24T07:40:55;60.78;;;17.30;;
72422;SDS011;60413;55.658;37.498;2022-12-24T07:43:22;51.38;;;15.13;;
72422;SDS011;60413;55.658;37.498;2022-12-24T07:45:48;47.33;;;15.68;;
72422;SDS011;60413;55.658;37.498;2022-12-24T07:48:15;47.58;;;15.85;;
72422;SDS011;60413;55.658;37.498;2022-12-24T07:50:44;47.97;;;15.57;;
72422;SDS011;60413;55.658;37.498;2022-12-24T07:53:10;44.97;;;14.68;;
72422;SDS011;60413;55.658;37.498;2022-12-24T07:55:36;52.85;;;15.52;;
72422;SDS011;60413;55.658;37.498;2022-12-24T07:58:05;48.92;;;16.60;;
72422;SDS011;60413;55.658;37.498;2022-12-24T08:00:38;39.58;;;14.80;;
72422;SDS011;60413;55.658;37.498;2022-12-24T08:03:04;39.00;;;13.63;;
72422;SDS011;60413;55.658;37.498;2022-12-24T08:05:35;37.38;;;13.50;;
72422;SDS011;60413;55.658;37.498;2022-12-24T08:08:01;44.67;;;14.98;;
72422;SDS011;60413;55.658;37.498;2022-12-24T08:10:27;41.05;;;14.13;;
72422;SDS011;60413;55.658;37.498;2022-12-24T08:12:53;30.42;;;11.25;;
72422;SDS011;60413;55.658;37.498;2022-12-24T08:15:19;27.90;;;12.10;;
72422;SDS011;60413;55.658;37.498;2022-12-24T08:17:49;24.55;;;9.02;;
72422;SDS011;60413;55.658;37.498;2022-12-24T08:20:15;32.03;;;12.57;;
72422;SDS011;60413;55.658;37.498;2022-12-24T08:22:42;36.53;;;12.93;;
72422;SDS011;60413;55.658;37.498;2022-12-24T08:25:08;31.55;;;12.13;;
72422;SDS011;60413;55.658;37.498;2022-12-24T08:27:37;36.30;;;13.02;;
72422;SDS011;60413;55.658;37.498;2022-12-24T08:30:04;31.17;;;12.20;;
72422;SDS011;60413;55.658;37.498;2022-12-24T08:32:31;32.00;;;12.35;;
72422;SDS011;60413;55.658;37.498;2022-12-24T08:34:57;26.83;;;10.55;;
72422;SDS011;60413;55.658;37.498;2022-12-24T08:37:24;26.58;;;9.88;;
72422;SDS011;60413;55.658;37.498;2022-12-24T08:39:55;21.60;;;9.98;;
72422;SDS011;60413;55.658;37.498;2022-12-24T08:42:23;22.73;;;9.50;;
72422;SDS011;60413;55.658;37.498;2022-12-24T08:44:49;28.05;;;10.73;;
72422;SDS011;60413;55.658;37.498;2022-12-24T08:47:26;26.17;;;11.02;;
72422;SDS011;60413;55.658;37.498;2022-12-24T08:50:03;21.73;;;9.50;;
72422;SDS011;60413;55.658;37.498;2022-12-24T08:52:30;26.25;;;11.13;;
72422;SDS011;60413;55.658;37.498;2022-12-24T08:54:57;28.05;;;11.60;;
72422;SDS011;60413;55.658;37.498;2022-12-24T08:57:24;22.63;;;10.05;;
72422;SDS011;60413;55.658;37.498;2022-12-24T08:59:54;27.73;;;11.52;;
72422;SDS011;60413;55.658;37.498;2022-12-24T09:02:20;24.98;;;10.65;;
72422;SDS011;60413;55.658;37.498;2022-12-24T09:04:48;30.33;;;12.38;;
72422;SDS011;60413;55.658;37.498;2022-12-24T09:07:14;20.83;;;9.10;;
72422;SDS011;60413;55.658;37.498;2022-12-24T09:09:40;23.58;;;9.15;;
72422;SDS011;60413;55.658;37.498;2022-12-24T09:12:06;31.35;;;11.50;;
72422;SDS011;60413;55.658;37.498;2022-12-24T09:14:40;31.80;;;11.68;;
72422;SDS011;60413;55.658;37.498;2022-12-24T09:17:21;21.52;;;9.48;;
72422;SDS011;60413;55.658;37.498;2022-12-24T09:19:47;22.92;;;11.00;;
72422;SDS011;60413;55.658;37.498;2022-12-24T09:22:22;26.50;;;11.02;;
72422;SDS011;60413;55.658;37.498;2022-12-24T09:24:57;26.50;;;11.13;;
72422;SDS011;60413;55.658;37.498;2022-12-24T09:27:25;25.73;;;11.20;;
72422;SDS011;60413;55.658;37.498;2022-12-24T09:29:51;15.77;;;7.30;;
72422;SDS011;60413;55.658;37.498;2022-12-24T09:32:18;22.42;;;9.10;;
72422;SDS011;60413;55.658;37.498;2022-12-24T09:34:45;24.45;;;9.95;;
72422;SDS011;60413;55.658;37.498;2022-12-24T09:37:11;25.35;;;10.43;;
72422;SDS011;60413;55.658;37.498;2022-12-24T09:39:37;26.02;;;11.27;;
72422;SDS011;60413;55.658;37.498;2022-12-24T09:45:18;25.75;;;11.07;;
72422;SDS011;60413;55.658;37.498;2022-12-24T09:48:39;23.42;;;9.60;;
72422;SDS011;60413;55.658;37.498;2022-12-24T09:51:29;30.27;;;11.40;;
72422;SDS011;60413;55.658;37.498;2022-12-24T09:54:19;21.83;;;9.95;;
72422;SDS011;60413;55.658;37.498;2022-12-24T09:56:59;20.60;;;8.80;;
72422;SDS011;60413;55.658;37.498;2022-12-24T09:59:43;24.83;;;10.95;;
72422;SDS011;60413;55.658;37.498;2022-12-24T10:02:14;26.85;;;10.82;;
72422;SDS011;60413;55.658;37.498;2022-12-24T10:10:51;15.88;;;7.15;;
72422;SDS011;60413;55.658;37.498;2022-12-24T10:13:43;21.00;;;9.88;;
72422;SDS011;60413;55.658;37.498;2022-12-24T10:16:41;22.88;;;9.25;;
72422;SDS011;60413;55.658;37.498;2022-12-24T10:31:12;20.38;;;9.18;;
72422;SDS011;60413;55.658;37.498;2022-12-24T10:34:17;21.52;;;8.98;;
72422;SDS011;60413;55.658;37.498;2022-12-24T10:37:05;25.00;;;9.60;;
72422;SDS011;60413;55.658;37.498;2022-12-24T10:40:12;24.35;;;9.35;;
72422;SDS011;60413;55.658;37.498;2022-12-24T10:42:56;21.88;;;7.93;;
72422;SDS011;60413;55.658;37.498;2022-12-24T10:45:36;20.98;;;9.13;;
72422;SDS011;60413;55.658;37.498;2022-12-24T10:48:24;20.33;;;8.68;;
72422;SDS011;60413;55.658;37.498;2022-12-24T10:54:26;22.00;;;9.38;;
72422;SDS011;60413;55.658;37.498;2022-12-24T11:00:31;19.85;;;8.30;;
72422;SDS011;60413;55.658;37.498;2022-12-24T11:06:12;22.80;;;9.32;;
72422;SDS011;60413;55.658;37.498;2022-12-24T11:08:48;22.98;;;9.63;;
72422;SDS011;60413;55.658;37.498;2022-12-24T11:11:16;21.27;;;9.35;;
72422;SDS011;60413;55.658;37.498;2022-12-24T11:13:55;22.92;;;10.05;;
72422;SDS011;60413;55.658;37.498;2022-12-24T11:16:34;19.33;;;10.05;;
72422;SDS011;60413;55.658;37.498;2022-12-24T11:19:02;20.40;;;9.38;;
72422;SDS011;60413;55.658;37.498;2022-12-24T11:21:35;18.23;;;8.15;;
72422;SDS011;60413;55.658;37.498;2022-12-24T11:24:20;17.40;;;8.02;;
72422;SDS011;60413;55.658;37.498;2022-12-24T11:27:22;23.98;;;11.32;;
72422;SDS011;60413;55.658;37.498;2022-12-24T11:32:44;22.27;;;9.82;;
72422;SDS011;60413;55.658;37.498;2022-12-24T11:35:32;17.63;;;8.43;;
72422;SDS011;60413;55.658;37.498;2022-12-24T11:38:11;18.40;;;8.30;;
72422;SDS011;60413;55.658;37.498;2022-12-24T11:40:50;21.00;;;8.65;;
72422;SDS011;60413;55.658;37.498;2022-12-24T11:43:23;17.95;;;8.48;;
72422;SDS011;60413;55.658;37.498;2022-12-24T11:46:33;17.88;;;8.15;;
72422;SDS011;60413;55.658;37.498;2022-12-24T11:49:12;19.05;;;9.32;;
72422;SDS011;60413;55.658;37.498;2022-12-24T11:52:45;18.45;;;8.57;;
72422;SDS011;60413;55.658;37.498;2022-12-24T11:57:15;15.30;;;7.07;;
72422;SDS011;60413;55.658;37.498;2022-12-24T11:59:46;19.48;;;9.05;;
72422;SDS011;60413;55.658;37.498;2022-12-24T12:02:21;16.80;;;8.57;;
72422;SDS011;60413;55.658;37.498;2022-12-24T12:07:45;20.92;;;9.00;;
72422;SDS011;60413;55.658;37.498;2022-12-24T12:10:24;16.92;;;8.75;;
72422;SDS011;60413;55.658;37.498;2022-12-24T12:13:01;18.20;;;7.97;;
72422;SDS011;60413;55.658;37.498;2022-12-24T12:15:34;14.93;;;7.45;;
72422;SDS011;60413;55.658;37.498;2022-12-24T12:18:14;20.52;;;8.45;;
72422;SDS011;60413;55.658;37.498;2022-12-24T12:20:53;17.73;;;7.68;;
72422;SDS011;60413;55.658;37.498;2022-12-24T12:26:35;13.48;;;6.35;;
72422;SDS011;60413;55.658;37.498;2022-12-24T12:41:57;14.85;;;7.40;;
72422;SDS011;60413;55.658;37.498;2022-12-24T12:56:03;10.77;;;5.93;;
72422;SDS011;60413;55.658;37.498;2022-12-24T12:58:40;12.90;;;5.82;;
72422;SDS011;60413;55.658;37.498;2022-12-24T13:01:21;12.63;;;6.57;;
72422;SDS011;60413;55.658;37.498;2022-12-24T13:04:09;11.93;;;5.78;;
72422;SDS011;60413;55.658;37.498;2022-12-24T13:07:01;11.77;;;6.45;;
72422;SDS011;60413;55.658;37.498;2022-12-24T13:12:43;13.57;;;7.03;;
72422;SDS011;60413;55.658;37.498;2022-12-24T13:20:27;10.15;;;5.15;;
72422;SDS011;60413;55.658;37.498;2022-12-24T13:22:57;11.13;;;6.00;;
72422;SDS011;60413;55.658;37.498;2022-12-24T13:25:39;11.27;;;6.10;;
72422;SDS011;60413;55.658;37.498;2022-12-24T13:30:50;12.35;;;5.95;;
72422;SDS011;60413;55.658;37.498;2022-12-24T13:36:03;11.77;;;5.78;;
72422;SDS011;60413;55.658;37.498;2022-12-24T13:38:45;12.80;;;6.00;;
72422;SDS011;60413;55.658;37.498;2022-12-24T13:44:03;12.52;;;6.07;;
72422;SDS011;60413;55.658;37.498;2022-12-24T13:52:15;17.88;;;6.40;;
72422;SDS011;60413;55.658;37.498;2022-12-24T13:57:25;12.98;;;6.25;;
72422;SDS011;60413;55.658;37.498;2022-12-24T14:02:44;13.73;;;6.03;;
72422;SDS011;60413;55.658;37.498;2022-12-24T14:08:08;10.65;;;5.78;;
72422;SDS011;60413;55.658;37.498;2022-12-24T14:10:55;12.30;;;6.22;;
72422;SDS011;60413;55.658;37.498;2022-12-24T14:16:03;13.43;;;6.15;;
72422;SDS011;60413;55.658;37.498;2022-12-24T14:18:37;13.27;;;6.25;;
72422;SDS011;60413;55.658;37.498;2022-12-24T14:21:05;12.98;;;6.38;;
72422;SDS011;60413;55.658;37.498;2022-12-24T14:23:52;12.93;;;5.95;;
72422;SDS011;60413;55.658;37.498;2022-12-24T14:26:22;13.80;;;6.50;;
72422;SDS011;60413;55.658;37.498;2022-12-24T14:28:53;14.77;;;7.00;;
72422;SDS011;60413;55.658;37.498;2022-12-24T14:31:22;13.70;;;6.55;;
72422;SDS011;60413;55.658;37.498;2022-12-24T14:33:49;14.50;;;6.32;;
72422;SDS011;60413;55.658;37.498;2022-12-24T14:36:17;13.00;;;6.68;;
72422;SDS011;60413;55.658;37.498;2022-12-24T14:38:46;13.98;;;6.93;;
72422;SDS011;60413;55.658;37.498;2022-12-24T14:41:18;14.77;;;6.43;;
72422;SDS011;60413;55.658;37.498;2022-12-24T14:46:46;12.20;;;5.63;;
72422;SDS011;60413;55.658;37.498;2022-12-24T15:00:41;13.65;;;7.32;;
72422;SDS011;60413;55.658;37.498;2022-12-24T15:03:17;15.70;;;7.07;;
72422;SDS011;60413;55.658;37.498;2022-12-24T15:05:49;14.82;;;7.07;;
72422;SDS011;60413;55.658;37.498;2022-12-24T15:08:27;12.38;;;6.28;;
72422;SDS011;60413;55.658;37.498;2022-12-24T15:10:58;17.17;;;7.10;;
72422;SDS011;60413;55.658;37.498;2022-12-24T15:13:34;17.80;;;7.13;;
72422;SDS011;60413;55.658;37.498;2022-12-24T15:16:04;17.40;;;7.50;;
72422;SDS011;60413;55.658;37.498;2022-12-24T15:18:34;16.65;;;7.20;;
72422;SDS011;60413;55.658;37.498;2022-12-24T15:21:03;14.55;;;6.90;;
72422;SDS011;60413;55.658;37.498;2022-12-24T15:23:33;16.35;;;7.32;;
72422;SDS011;60413;55.658;37.498;2022-12-24T15:26:13;15.20;;;7.18;;
72422;SDS011;60413;55.658;37.498;2022-12-24T15:28:59;14.30;;;6.18;;
72422;SDS011;60413;55.658;37.498;2022-12-24T15:31:26;14.90;;;7.05;;
72422;SDS011;60413;55.658;37.498;2022-12-24T15:33:54;22.75;;;7.90;;
72422;SDS011;60413;55.658;37.498;2022-12-24T15:36:28;12.85;;;7.20;;
72422;SDS011;60413;55.658;37.498;2022-12-24T15:39:01;13.35;;;6.70;;
72422;SDS011;60413;55.658;37.498;2022-12-24T15:41:34;13.80;;;6.00;;
72422;SDS011;60413;55.658;37.498;2022-12-24T15:44:24;13.82;;;6.60;;
72422;SDS011;60413;55.658;37.498;2022-12-24T15:46:57;13.93;;;6.78;;
72422;SDS011;60413;55.658;37.498;2022-12-24T15:49:25;14.35;;;6.82;;
72422;SDS011;60413;55.658;37.498;2022-12-24T15:52:08;18.57;;;7.90;;
72422;SDS011;60413;55.658;37.498;2022-12-24T15:54:43;13.70;;;6.72;;
72422;SDS011;60413;55.658;37.498;2022-12-24T15:57:28;13.10;;;6.65;;
72422;SDS011;60413;55.658;37.498;2022-12-24T16:00:01;13.02;;;6.65;;
72422;SDS011;60413;55.658;37.498;2022-12-24T16:13:11;13.68;;;6.40;;
72422;SDS011;60413;55.658;37.498;2022-12-24T16:15:45;11.07;;;5.93;;
72422;SDS011;60413;55.658;37.498;2022-12-24T16:18:15;14.02;;;6.32;;
72422;SDS011;60413;55.658;37.498;2022-12-24T16:20:51;13.73;;;6.20;;
72422;SDS011;60413;55.658;37.498;2022-12-24T16:23:22;12.68;;;5.57;;
72422;SDS011;60413;55.658;37.498;2022-12-24T16:25:51;11.48;;;6.55;;
72422;SDS011;60413;55.658;37.498;2022-12-24T16:28:17;10.65;;;5.85;;
72422;SDS011;60413;55.658;37.498;2022-12-24T16:30:45;16.50;;;6.88;;
72422;SDS011;60413;55.658;37.498;2022-12-24T16:33:15;14.18;;;6.55;;
72422;SDS011;60413;55.658;37.498;2022-12-24T16:35:43;12.30;;;5.45;;
72422;SDS011;60413;55.658;37.498;2022-12-24T16:38:11;17.33;;;7.88;;
72422;SDS011;60413;55.658;37.498;2022-12-24T16:40:39;13.68;;;6.30;;
72422;SDS011;60413;55.658;37.498;2022-12-24T16:43:05;14.73;;;6.53;;
72422;SDS011;60413;55.658;37.498;2022-12-24T16:46:23;15.10;;;6.80;;
72422;SDS011;60413;55.658;37.498;2022-12-24T16:48:55;21.55;;;8.25;;
72422;SDS011;60413;55.658;37.498;2022-12-24T16:51:24;14.75;;;7.22;;
72422;SDS011;60413;55.658;37.498;2022-12-24T16:53:50;17.65;;;8.45;;
72422;SDS011;60413;55.658;37.498;2022-12-24T16:56:16;21.50;;;6.90;;
72422;SDS011;60413;55.658;37.498;2022-12-24T16:58:42;18.15;;;7.30;;
72422;SDS011;60413;55.658;37.498;2022-12-24T17:01:08;56.08;;;17.45;;
72422;SDS011;60413;55.658;37.498;2022-12-24T17:03:34;35.58;;;12.63;;
72422;SDS011;60413;55.658;37.498;2022-12-24T17:06:03;43.17;;;13.60;;
72422;SDS011;60413;55.658;37.498;2022-12-24T17:08:29;25.75;;;9.48;;
72422;SDS011;60413;55.658;37.498;2022-12-24T17:10:55;20.48;;;8.23;;
72422;SDS011;60413;55.658;37.498;2022-12-24T17:13:24;17.05;;;8.30;;
72422;SDS011;60413;55.658;37.498;2022-12-24T17:15:50;16.35;;;7.38;;